sensor_id;sensor_type;location;lat;lon;timestamp;P1;durP1;ratioP1;P2;durP2;ratioP2
56943;SDS011;42848;42.524;12.052;2022-09-09T00:00:47;5.25;;;1.80;;
56943;SDS011;42848;42.524;12.052;2022-09-09T00:03:26;5.78;;;1.52;;
56943;SDS011;42848;42.524;12.052;2022-09-09T00:17:09;3.90;;;1.55;;
56943;SDS011;42848;42.524;12.052;2022-09-09T00:19:52;4.47;;;1.63;;
56943;SDS011;42848;42.524;12.052;2022-09-09T00:22:31;5.05;;;1.40;;
56943;SDS011;42848;42.524;12.052;2022-09-09T00:25:09;5.32;;;1.63;;
56943;SDS011;42848;42.524;12.052;2022-09-09T00:27:44;5.40;;;1.70;;
56943;SDS011;42848;42.524;12.052;2022-09-09T00:30:15;3.83;;;1.60;;
56943;SDS011;42848;42.524;12.052;2022-09-09T00:32:45;4.85;;;1.50;;
56943;SDS011;42848;42.524;12.052;2022-09-09T00:35:21;4.38;;;1.42;;
56943;SDS011;42848;42.524;12.052;2022-09-09T00:37:51;4.75;;;1.50;;
56943;SDS011;42848;42.524;12.052;2022-09-09T00:40:24;4.25;;;1.40;;
56943;SDS011;42848;42.524;12.052;2022-09-09T00:43:21;3.65;;;1.70;;
56943;SDS011;42848;42.524;12.052;2022-09-09T00:51:50;5.20;;;1.63;;
56943;SDS011;42848;42.524;12.052;2022-09-09T00:57:36;4.47;;;1.52;;
56943;SDS011;42848;42.524;12.052;2022-09-09T01:05:44;4.10;;;1.30;;
56943;SDS011;42848;42.524;12.052;2022-09-09T01:08:22;2.85;;;1.20;;
56943;SDS011;42848;42.524;12.052;2022-09-09T01:10:53;3.70;;;1.40;;
56943;SDS011;42848;42.524;12.052;2022-09-09T01:13:29;5.07;;;1.60;;
56943;SDS011;42848;42.524;12.052;2022-09-09T01:16:04;3.95;;;1.40;;
56943;SDS011;42848;42.524;12.052;2022-09-09T01:18:37;3.88;;;1.55;;
56943;SDS011;42848;42.524;12.052;2022-09-09T01:24:01;3.08;;;1.42;;
56943;SDS011;42848;42.524;12.052;2022-09-09T01:26:45;4.25;;;1.50;;
56943;SDS011;42848;42.524;12.052;2022-09-09T01:29:14;3.42;;;1.33;;
56943;SDS011;42848;42.524;12.052;2022-09-09T01:32:01;3.17;;;1.40;;
56943;SDS011;42848;42.524;12.052;2022-09-09T01:34:29;4.72;;;1.27;;
56943;SDS011;42848;42.524;12.052;2022-09-09T01:37:02;3.78;;;1.40;;
56943;SDS011;42848;42.524;12.052;2022-09-09T01:39:32;2.92;;;1.40;;
56943;SDS011;42848;42.524;12.052;2022-09-09T01:42:00;3.40;;;1.50;;
56943;SDS011;42848;42.524;12.052;2022-09-09T01:44:27;5.20;;;1.50;;
56943;SDS011;42848;42.524;12.052;2022-09-09T01:46:54;3.58;;;1.65;;
56943;SDS011;42848;42.524;12.052;2022-09-09T01:49:20;3.42;;;1.70;;
56943;SDS011;42848;42.524;12.052;2022-09-09T01:51:52;4.05;;;1.80;;
56943;SDS011;42848;42.524;12.052;2022-09-09T01:54:20;4.03;;;1.77;;
56943;SDS011;42848;42.524;12.052;2022-09-09T02:02:36;4.60;;;2.05;;
56943;SDS011;42848;42.524;12.052;2022-09-09T02:07:50;5.13;;;2.30;;
56943;SDS011;42848;42.524;12.052;2022-09-09T02:10:28;6.32;;;2.60;;
56943;SDS011;42848;42.524;12.052;2022-09-09T02:13:01;4.65;;;2.35;;
56943;SDS011;42848;42.524;12.052;2022-09-09T02:18:10;6.82;;;2.38;;
56943;SDS011;42848;42.524;12.052;2022-09-09T02:20:39;7.43;;;2.58;;
56943;SDS011;42848;42.524;12.052;2022-09-09T02:23:07;5.78;;;1.90;;
56943;SDS011;42848;42.524;12.052;2022-09-09T02:25:36;4.95;;;1.95;;
56943;SDS011;42848;42.524;12.052;2022-09-09T02:28:03;4.03;;;1.58;;
56943;SDS011;42848;42.524;12.052;2022-09-09T02:30:32;6.07;;;1.80;;
56943;SDS011;42848;42.524;12.052;2022-09-09T02:33:01;4.78;;;1.80;;
56943;SDS011;42848;42.524;12.052;2022-09-09T02:35:31;4.00;;;1.95;;
56943;SDS011;42848;42.524;12.052;2022-09-09T02:38:04;4.18;;;1.80;;
56943;SDS011;42848;42.524;12.052;2022-09-09T02:40:34;4.38;;;1.88;;
56943;SDS011;42848;42.524;12.052;2022-09-09T02:43:00;4.57;;;1.75;;
56943;SDS011;42848;42.524;12.052;2022-09-09T02:45:27;3.75;;;1.85;;
56943;SDS011;42848;42.524;12.052;2022-09-09T02:53:46;5.22;;;1.95;;
56943;SDS011;42848;42.524;12.052;2022-09-09T02:56:21;4.35;;;1.95;;
56943;SDS011;42848;42.524;12.052;2022-09-09T02:58:50;4.93;;;1.95;;
56943;SDS011;42848;42.524;12.052;2022-09-09T03:01:17;4.82;;;2.05;;
56943;SDS011;42848;42.524;12.052;2022-09-09T03:03:42;3.97;;;1.98;;
56943;SDS011;42848;42.524;12.052;2022-09-09T03:06:09;5.05;;;2.05;;
56943;SDS011;42848;42.524;12.052;2022-09-09T03:08:37;3.97;;;1.90;;
56943;SDS011;42848;42.524;12.052;2022-09-09T03:11:03;3.13;;;1.98;;
56943;SDS011;42848;42.524;12.052;2022-09-09T03:13:29;4.72;;;1.85;;
56943;SDS011;42848;42.524;12.052;2022-09-09T03:15:55;5.15;;;1.90;;
56943;SDS011;42848;42.524;12.052;2022-09-09T03:18:21;3.88;;;1.88;;
56943;SDS011;42848;42.524;12.052;2022-09-09T03:20:46;4.13;;;1.77;;
56943;SDS011;42848;42.524;12.052;2022-09-09T03:23:13;3.47;;;1.73;;
56943;SDS011;42848;42.524;12.052;2022-09-09T03:25:45;3.75;;;1.60;;
56943;SDS011;42848;42.524;12.052;2022-09-09T03:28:11;4.88;;;2.10;;
56943;SDS011;42848;42.524;12.052;2022-09-09T03:30:37;3.47;;;1.80;;
56943;SDS011;42848;42.524;12.052;2022-09-09T03:33:03;5.40;;;1.75;;
56943;SDS011;42848;42.524;12.052;2022-09-09T03:35:29;4.38;;;1.70;;
56943;SDS011;42848;42.524;12.052;2022-09-09T03:37:54;5.47;;;1.90;;
56943;SDS011;42848;42.524;12.052;2022-09-09T03:40:20;4.53;;;1.70;;
56943;SDS011;42848;42.524;12.052;2022-09-09T03:42:46;3.55;;;1.70;;
56943;SDS011;42848;42.524;12.052;2022-09-09T03:45:13;4.93;;;1.73;;
56943;SDS011;42848;42.524;12.052;2022-09-09T03:47:38;5.03;;;2.00;;
56943;SDS011;42848;42.524;12.052;2022-09-09T03:50:05;4.07;;;1.90;;
56943;SDS011;42848;42.524;12.052;2022-09-09T03:52:36;4.50;;;1.98;;
56943;SDS011;42848;42.524;12.052;2022-09-09T03:55:04;4.10;;;1.90;;
56943;SDS011;42848;42.524;12.052;2022-09-09T03:57:30;6.05;;;1.92;;
56943;SDS011;42848;42.524;12.052;2022-09-09T04:00:00;4.97;;;1.70;;
56943;SDS011;42848;42.524;12.052;2022-09-09T04:02:28;4.97;;;1.90;;
56943;SDS011;42848;42.524;12.052;2022-09-09T04:04:53;4.95;;;1.90;;
56943;SDS011;42848;42.524;12.052;2022-09-09T04:07:19;4.35;;;1.98;;
56943;SDS011;42848;42.524;12.052;2022-09-09T04:09:45;4.88;;;2.08;;
56943;SDS011;42848;42.524;12.052;2022-09-09T04:12:11;3.92;;;2.00;;
56943;SDS011;42848;42.524;12.052;2022-09-09T04:14:38;4.10;;;1.95;;
56943;SDS011;42848;42.524;12.052;2022-09-09T04:17:04;3.20;;;1.70;;
56943;SDS011;42848;42.524;12.052;2022-09-09T04:19:31;4.57;;;1.77;;
56943;SDS011;42848;42.524;12.052;2022-09-09T04:21:57;5.50;;;2.00;;
56943;SDS011;42848;42.524;12.052;2022-09-09T04:24:24;4.57;;;1.77;;
56943;SDS011;42848;42.524;12.052;2022-09-09T04:26:52;6.25;;;1.77;;
56943;SDS011;42848;42.524;12.052;2022-09-09T04:29:18;3.25;;;1.75;;
56943;SDS011;42848;42.524;12.052;2022-09-09T04:31:43;4.68;;;2.00;;
56943;SDS011;42848;42.524;12.052;2022-09-09T04:34:09;3.90;;;1.80;;
56943;SDS011;42848;42.524;12.052;2022-09-09T04:36:35;5.72;;;2.05;;
56943;SDS011;42848;42.524;12.052;2022-09-09T04:39:01;4.10;;;1.88;;
56943;SDS011;42848;42.524;12.052;2022-09-09T04:41:27;4.53;;;1.90;;
56943;SDS011;42848;42.524;12.052;2022-09-09T04:43:53;3.58;;;1.83;;
56943;SDS011;42848;42.524;12.052;2022-09-09T04:46:20;3.42;;;1.70;;
56943;SDS011;42848;42.524;12.052;2022-09-09T04:48:48;4.45;;;2.00;;
56943;SDS011;42848;42.524;12.052;2022-09-09T04:51:14;4.82;;;1.75;;
56943;SDS011;42848;42.524;12.052;2022-09-09T04:53:41;4.28;;;1.90;;
56943;SDS011;42848;42.524;12.052;2022-09-09T04:56:08;3.95;;;1.73;;
56943;SDS011;42848;42.524;12.052;2022-09-09T04:58:35;4.05;;;1.73;;
56943;SDS011;42848;42.524;12.052;2022-09-09T05:01:03;4.82;;;1.92;;
56943;SDS011;42848;42.524;12.052;2022-09-09T05:03:29;5.65;;;2.00;;
56943;SDS011;42848;42.524;12.052;2022-09-09T05:06:01;3.60;;;2.10;;
56943;SDS011;42848;42.524;12.052;2022-09-09T05:08:31;3.90;;;2.17;;
56943;SDS011;42848;42.524;12.052;2022-09-09T05:10:57;5.45;;;2.20;;
56943;SDS011;42848;42.524;12.052;2022-09-09T05:13:25;6.18;;;2.42;;
56943;SDS011;42848;42.524;12.052;2022-09-09T05:15:54;6.10;;;2.60;;
56943;SDS011;42848;42.524;12.052;2022-09-09T05:18:20;6.65;;;2.80;;
56943;SDS011;42848;42.524;12.052;2022-09-09T05:20:48;5.45;;;2.22;;
56943;SDS011;42848;42.524;12.052;2022-09-09T05:23:14;6.68;;;2.42;;
56943;SDS011;42848;42.524;12.052;2022-09-09T05:25:39;8.75;;;4.70;;
56943;SDS011;42848;42.524;12.052;2022-09-09T05:28:05;7.68;;;2.90;;
56943;SDS011;42848;42.524;12.052;2022-09-09T05:30:32;9.95;;;5.35;;
56943;SDS011;42848;42.524;12.052;2022-09-09T05:32:59;6.15;;;3.15;;
56943;SDS011;42848;42.524;12.052;2022-09-09T05:35:25;5.30;;;2.13;;
56943;SDS011;42848;42.524;12.052;2022-09-09T05:37:50;9.20;;;3.90;;
56943;SDS011;42848;42.524;12.052;2022-09-09T05:40:16;9.57;;;3.75;;
56943;SDS011;42848;42.524;12.052;2022-09-09T05:42:41;6.82;;;2.58;;
56943;SDS011;42848;42.524;12.052;2022-09-09T05:45:08;7.93;;;3.20;;
56943;SDS011;42848;42.524;12.052;2022-09-09T05:47:34;4.15;;;2.22;;
56943;SDS011;42848;42.524;12.052;2022-09-09T05:50:02;7.13;;;3.10;;
56943;SDS011;42848;42.524;12.052;2022-09-09T05:52:28;9.13;;;2.90;;
56943;SDS011;42848;42.524;12.052;2022-09-09T05:54:54;6.82;;;2.63;;
56943;SDS011;42848;42.524;12.052;2022-09-09T05:57:21;6.07;;;2.70;;
56943;SDS011;42848;42.524;12.052;2022-09-09T05:59:46;7.53;;;3.28;;
56943;SDS011;42848;42.524;12.052;2022-09-09T06:02:12;5.20;;;2.45;;
56943;SDS011;42848;42.524;12.052;2022-09-09T06:04:38;6.15;;;2.95;;
56943;SDS011;42848;42.524;12.052;2022-09-09T06:07:04;9.90;;;3.80;;
56943;SDS011;42848;42.524;12.052;2022-09-09T06:09:31;8.30;;;4.00;;
56943;SDS011;42848;42.524;12.052;2022-09-09T06:11:57;7.03;;;3.25;;
56943;SDS011;42848;42.524;12.052;2022-09-09T06:14:23;9.73;;;4.50;;
56943;SDS011;42848;42.524;12.052;2022-09-09T06:16:50;6.57;;;3.05;;
56943;SDS011;42848;42.524;12.052;2022-09-09T06:19:16;6.25;;;2.67;;
56943;SDS011;42848;42.524;12.052;2022-09-09T06:21:43;5.13;;;2.90;;
56943;SDS011;42848;42.524;12.052;2022-09-09T06:24:09;7.25;;;3.15;;
56943;SDS011;42848;42.524;12.052;2022-09-09T06:26:39;22.55;;;6.18;;
56943;SDS011;42848;42.524;12.052;2022-09-09T06:29:06;15.43;;;5.97;;
56943;SDS011;42848;42.524;12.052;2022-09-09T06:31:33;13.90;;;4.25;;
56943;SDS011;42848;42.524;12.052;2022-09-09T06:34:03;17.75;;;4.65;;
56943;SDS011;42848;42.524;12.052;2022-09-09T06:36:31;11.77;;;3.97;;
56943;SDS011;42848;42.524;12.052;2022-09-09T06:38:59;11.02;;;4.40;;
56943;SDS011;42848;42.524;12.052;2022-09-09T06:41:27;10.30;;;3.38;;
56943;SDS011;42848;42.524;12.052;2022-09-09T06:43:54;8.13;;;2.92;;
56943;SDS011;42848;42.524;12.052;2022-09-09T06:46:24;8.20;;;3.10;;
56943;SDS011;42848;42.524;12.052;2022-09-09T06:48:55;7.72;;;3.72;;
56943;SDS011;42848;42.524;12.052;2022-09-09T06:51:23;9.00;;;5.38;;
56943;SDS011;42848;42.524;12.052;2022-09-09T06:53:51;9.30;;;4.40;;
56943;SDS011;42848;42.524;12.052;2022-09-09T06:58:53;8.50;;;3.90;;
56943;SDS011;42848;42.524;12.052;2022-09-09T07:01:21;7.13;;;3.55;;
56943;SDS011;42848;42.524;12.052;2022-09-09T07:03:49;11.95;;;3.95;;
56943;SDS011;42848;42.524;12.052;2022-09-09T07:06:21;10.65;;;3.90;;
56943;SDS011;42848;42.524;12.052;2022-09-09T07:08:52;9.43;;;3.78;;
56943;SDS011;42848;42.524;12.052;2022-09-09T07:11:20;8.80;;;3.85;;
56943;SDS011;42848;42.524;12.052;2022-09-09T07:13:47;8.85;;;3.63;;
56943;SDS011;42848;42.524;12.052;2022-09-09T07:16:15;8.65;;;3.80;;
56943;SDS011;42848;42.524;12.052;2022-09-09T07:18:43;8.85;;;4.03;;
56943;SDS011;42848;42.524;12.052;2022-09-09T07:21:09;8.25;;;4.03;;
56943;SDS011;42848;42.524;12.052;2022-09-09T07:23:37;8.98;;;3.45;;
56943;SDS011;42848;42.524;12.052;2022-09-09T07:26:07;7.07;;;3.17;;
56943;SDS011;42848;42.524;12.052;2022-09-09T07:28:35;9.80;;;3.70;;
56943;SDS011;42848;42.524;12.052;2022-09-09T07:31:01;9.15;;;3.90;;
56943;SDS011;42848;42.524;12.052;2022-09-09T07:33:28;9.13;;;4.10;;
56943;SDS011;42848;42.524;12.052;2022-09-09T07:36:02;9.35;;;3.67;;
56943;SDS011;42848;42.524;12.052;2022-09-09T07:38:28;8.98;;;3.83;;
56943;SDS011;42848;42.524;12.052;2022-09-09T07:41:02;7.57;;;3.80;;
56943;SDS011;42848;42.524;12.052;2022-09-09T07:43:30;10.32;;;4.53;;
56943;SDS011;42848;42.524;12.052;2022-09-09T07:45:58;10.13;;;4.38;;
56943;SDS011;42848;42.524;12.052;2022-09-09T07:48:23;7.95;;;4.05;;
56943;SDS011;42848;42.524;12.052;2022-09-09T07:50:51;10.60;;;4.22;;
56943;SDS011;42848;42.524;12.052;2022-09-09T07:53:16;11.10;;;4.28;;
56943;SDS011;42848;42.524;12.052;2022-09-09T07:55:42;9.73;;;4.13;;
56943;SDS011;42848;42.524;12.052;2022-09-09T07:58:08;9.32;;;4.10;;
56943;SDS011;42848;42.524;12.052;2022-09-09T08:00:34;8.82;;;4.10;;
56943;SDS011;42848;42.524;12.052;2022-09-09T08:03:00;16.50;;;4.85;;
56943;SDS011;42848;42.524;12.052;2022-09-09T08:05:27;10.07;;;4.90;;
56943;SDS011;42848;42.524;12.052;2022-09-09T08:07:53;9.90;;;4.43;;
56943;SDS011;42848;42.524;12.052;2022-09-09T08:10:19;12.57;;;4.93;;
56943;SDS011;42848;42.524;12.052;2022-09-09T08:12:44;10.63;;;4.80;;
56943;SDS011;42848;42.524;12.052;2022-09-09T08:15:10;9.70;;;4.35;;
56943;SDS011;42848;42.524;12.052;2022-09-09T08:17:37;11.20;;;4.50;;
56943;SDS011;42848;42.524;12.052;2022-09-09T08:20:03;12.90;;;4.93;;
56943;SDS011;42848;42.524;12.052;2022-09-09T08:22:30;8.00;;;4.22;;
56943;SDS011;42848;42.524;12.052;2022-09-09T08:24:56;9.13;;;4.70;;
56943;SDS011;42848;42.524;12.052;2022-09-09T08:27:22;12.60;;;4.68;;
56943;SDS011;42848;42.524;12.052;2022-09-09T08:29:48;16.45;;;5.13;;
56943;SDS011;42848;42.524;12.052;2022-09-09T08:32:13;11.02;;;5.30;;
56943;SDS011;42848;42.524;12.052;2022-09-09T08:34:39;9.30;;;4.75;;
56943;SDS011;42848;42.524;12.052;2022-09-09T08:37:06;12.70;;;5.35;;
56943;SDS011;42848;42.524;12.052;2022-09-09T08:39:31;10.45;;;5.20;;
56943;SDS011;42848;42.524;12.052;2022-09-09T08:52:51;13.65;;;5.72;;
56943;SDS011;42848;42.524;12.052;2022-09-09T09:09:20;9.88;;;4.80;;
56943;SDS011;42848;42.524;12.052;2022-09-09T09:11:53;11.32;;;5.43;;
56943;SDS011;42848;42.524;12.052;2022-09-09T09:17:02;11.98;;;5.65;;
56943;SDS011;42848;42.524;12.052;2022-09-09T09:19:34;11.25;;;6.03;;
56943;SDS011;42848;42.524;12.052;2022-09-09T09:22:10;13.27;;;7.07;;
56943;SDS011;42848;42.524;12.052;2022-09-09T09:24:52;12.02;;;5.70;;
56943;SDS011;42848;42.524;12.052;2022-09-09T09:27:40;12.63;;;6.10;;
56943;SDS011;42848;42.524;12.052;2022-09-09T09:30:17;13.65;;;6.20;;
56943;SDS011;42848;42.524;12.052;2022-09-09T09:33:03;12.82;;;6.38;;
56943;SDS011;42848;42.524;12.052;2022-09-09T09:35:43;14.90;;;6.90;;
56943;SDS011;42848;42.524;12.052;2022-09-09T09:38:22;12.27;;;6.43;;
56943;SDS011;42848;42.524;12.052;2022-09-09T09:40:57;12.32;;;6.30;;
56943;SDS011;42848;42.524;12.052;2022-09-09T09:43:31;10.32;;;5.78;;
56943;SDS011;42848;42.524;12.052;2022-09-09T09:46:03;10.48;;;6.47;;
56943;SDS011;42848;42.524;12.052;2022-09-09T09:48:45;15.43;;;7.00;;
56943;SDS011;42848;42.524;12.052;2022-09-09T09:51:25;13.07;;;7.35;;
56943;SDS011;42848;42.524;12.052;2022-09-09T09:53:51;14.65;;;5.93;;
56943;SDS011;42848;42.524;12.052;2022-09-09T09:56:26;14.95;;;7.30;;
56943;SDS011;42848;42.524;12.052;2022-09-09T09:58:57;10.57;;;6.25;;
56943;SDS011;42848;42.524;12.052;2022-09-09T10:01:24;13.23;;;7.20;;
56943;SDS011;42848;42.524;12.052;2022-09-09T10:03:53;17.85;;;10.23;;
56943;SDS011;42848;42.524;12.052;2022-09-09T10:06:56;12.48;;;5.97;;
56943;SDS011;42848;42.524;12.052;2022-09-09T10:11:57;10.95;;;5.15;;
56943;SDS011;42848;42.524;12.052;2022-09-09T10:15:02;10.57;;;5.27;;
56943;SDS011;42848;42.524;12.052;2022-09-09T10:17:43;11.07;;;4.78;;
56943;SDS011;42848;42.524;12.052;2022-09-09T10:23:24;8.05;;;3.13;;
56943;SDS011;42848;42.524;12.052;2022-09-09T10:34:23;7.95;;;3.47;;
56943;SDS011;42848;42.524;12.052;2022-09-09T10:43:29;10.23;;;5.38;;
56943;SDS011;42848;42.524;12.052;2022-09-09T10:52:19;6.20;;;2.78;;
56943;SDS011;42848;42.524;12.052;2022-09-09T10:57:52;8.07;;;2.70;;
56943;SDS011;42848;42.524;12.052;2022-09-09T11:00:23;7.00;;;2.50;;
56943;SDS011;42848;42.524;12.052;2022-09-09T11:03:04;5.43;;;2.28;;
56943;SDS011;42848;42.524;12.052;2022-09-09T11:05:41;5.22;;;2.90;;
56943;SDS011;42848;42.524;12.052;2022-09-09T11:08:14;4.50;;;1.73;;
56943;SDS011;42848;42.524;12.052;2022-09-09T11:10:48;3.08;;;1.30;;
56943;SDS011;42848;42.524;12.052;2022-09-09T11:16:14;4.03;;;1.08;;
56943;SDS011;42848;42.524;12.052;2022-09-09T11:18:47;4.35;;;1.00;;
56943;SDS011;42848;42.524;12.052;2022-09-09T11:21:28;2.38;;;0.98;;
56943;SDS011;42848;42.524;12.052;2022-09-09T11:24:13;2.20;;;1.00;;
56943;SDS011;42848;42.524;12.052;2022-09-09T11:32:53;1.70;;;0.80;;
56943;SDS011;42848;42.524;12.052;2022-09-09T11:38:38;2.97;;;0.90;;
56943;SDS011;42848;42.524;12.052;2022-09-09T11:43:44;3.90;;;1.13;;
56943;SDS011;42848;42.524;12.052;2022-09-09T11:46:12;3.08;;;1.00;;
56943;SDS011;42848;42.524;12.052;2022-09-09T11:48:41;2.33;;;1.00;;
56943;SDS011;42848;42.524;12.052;2022-09-09T11:56:55;2.70;;;0.88;;
56943;SDS011;42848;42.524;12.052;2022-09-09T12:05:12;3.22;;;0.80;;
56943;SDS011;42848;42.524;12.052;2022-09-09T12:07:41;1.65;;;0.60;;
56943;SDS011;42848;42.524;12.052;2022-09-09T12:10:28;2.70;;;0.90;;
56943;SDS011;42848;42.524;12.052;2022-09-09T12:13:16;2.33;;;0.70;;
56943;SDS011;42848;42.524;12.052;2022-09-09T12:16:00;2.35;;;0.80;;
56943;SDS011;42848;42.524;12.052;2022-09-09T12:18:34;1.52;;;0.68;;
56943;SDS011;42848;42.524;12.052;2022-09-09T12:21:04;1.90;;;0.75;;
56943;SDS011;42848;42.524;12.052;2022-09-09T12:23:52;2.50;;;0.70;;
56943;SDS011;42848;42.524;12.052;2022-09-09T12:34:49;1.77;;;0.70;;
56943;SDS011;42848;42.524;12.052;2022-09-09T12:37:32;2.60;;;0.80;;
56943;SDS011;42848;42.524;12.052;2022-09-09T12:40:02;1.55;;;0.70;;
56943;SDS011;42848;42.524;12.052;2022-09-09T12:42:30;2.50;;;0.77;;
56943;SDS011;42848;42.524;12.052;2022-09-09T12:45:01;2.45;;;0.70;;
56943;SDS011;42848;42.524;12.052;2022-09-09T12:47:47;3.85;;;1.00;;
56943;SDS011;42848;42.524;12.052;2022-09-09T12:50:27;2.22;;;0.85;;
56943;SDS011;42848;42.524;12.052;2022-09-09T12:52:56;2.80;;;0.80;;
56943;SDS011;42848;42.524;12.052;2022-09-09T12:55:30;2.63;;;0.98;;
56943;SDS011;42848;42.524;12.052;2022-09-09T12:58:02;2.75;;;0.90;;
56943;SDS011;42848;42.524;12.052;2022-09-09T13:00:31;2.97;;;1.00;;
56943;SDS011;42848;42.524;12.052;2022-09-09T13:03:01;3.53;;;0.90;;
56943;SDS011;42848;42.524;12.052;2022-09-09T13:05:34;3.00;;;1.02;;
56943;SDS011;42848;42.524;12.052;2022-09-09T13:10:33;2.33;;;0.82;;
56943;SDS011;42848;42.524;12.052;2022-09-09T13:13:19;2.92;;;0.93;;
56943;SDS011;42848;42.524;12.052;2022-09-09T13:15:57;4.30;;;1.13;;
56943;SDS011;42848;42.524;12.052;2022-09-09T13:18:25;4.68;;;1.00;;
56943;SDS011;42848;42.524;12.052;2022-09-09T13:20:55;2.72;;;0.80;;
56943;SDS011;42848;42.524;12.052;2022-09-09T13:23:23;3.15;;;0.90;;
56943;SDS011;42848;42.524;12.052;2022-09-09T13:25:55;3.38;;;1.00;;
56943;SDS011;42848;42.524;12.052;2022-09-09T13:28:27;5.53;;;1.10;;
56943;SDS011;42848;42.524;12.052;2022-09-09T13:30:58;3.00;;;1.10;;
56943;SDS011;42848;42.524;12.052;2022-09-09T13:33:32;3.78;;;1.05;;
56943;SDS011;42848;42.524;12.052;2022-09-09T13:36:03;3.03;;;1.10;;
56943;SDS011;42848;42.524;12.052;2022-09-09T13:38:37;2.90;;;0.90;;
56943;SDS011;42848;42.524;12.052;2022-09-09T13:41:21;2.67;;;0.98;;
56943;SDS011;42848;42.524;12.052;2022-09-09T13:43:49;2.70;;;1.00;;
56943;SDS011;42848;42.524;12.052;2022-09-09T13:51:35;3.75;;;1.40;;
56943;SDS011;42848;42.524;12.052;2022-09-09T13:54:03;2.90;;;0.90;;
56943;SDS011;42848;42.524;12.052;2022-09-09T13:56:34;3.08;;;1.00;;
56943;SDS011;42848;42.524;12.052;2022-09-09T13:59:01;2.85;;;1.00;;
56943;SDS011;42848;42.524;12.052;2022-09-09T14:01:28;2.35;;;1.02;;
56943;SDS011;42848;42.524;12.052;2022-09-09T14:03:55;3.05;;;1.00;;
56943;SDS011;42848;42.524;12.052;2022-09-09T14:06:21;3.50;;;1.00;;
56943;SDS011;42848;42.524;12.052;2022-09-09T14:08:47;3.13;;;1.52;;
56943;SDS011;42848;42.524;12.052;2022-09-09T14:11:15;2.90;;;1.00;;
56943;SDS011;42848;42.524;12.052;2022-09-09T14:13:42;3.85;;;1.23;;
56943;SDS011;42848;42.524;12.052;2022-09-09T14:16:08;2.58;;;1.00;;
56943;SDS011;42848;42.524;12.052;2022-09-09T14:18:34;2.92;;;1.13;;
56943;SDS011;42848;42.524;12.052;2022-09-09T14:21:03;3.78;;;0.90;;
56943;SDS011;42848;42.524;12.052;2022-09-09T14:23:28;3.58;;;0.90;;
56943;SDS011;42848;42.524;12.052;2022-09-09T14:25:54;3.53;;;0.98;;
56943;SDS011;42848;42.524;12.052;2022-09-09T14:28:21;3.67;;;1.00;;
56943;SDS011;42848;42.524;12.052;2022-09-09T14:30:47;3.55;;;1.00;;
56943;SDS011;42848;42.524;12.052;2022-09-09T14:33:14;2.50;;;0.93;;
56943;SDS011;42848;42.524;12.052;2022-09-09T14:35:41;2.50;;;0.90;;
56943;SDS011;42848;42.524;12.052;2022-09-09T14:38:08;3.10;;;1.00;;
56943;SDS011;42848;42.524;12.052;2022-09-09T14:40:34;3.00;;;0.90;;
56943;SDS011;42848;42.524;12.052;2022-09-09T14:43:01;3.03;;;1.20;;
56943;SDS011;42848;42.524;12.052;2022-09-09T14:45:27;3.08;;;1.00;;
56943;SDS011;42848;42.524;12.052;2022-09-09T14:47:53;3.58;;;1.05;;
56943;SDS011;42848;42.524;12.052;2022-09-09T14:50:19;2.72;;;1.20;;
56943;SDS011;42848;42.524;12.052;2022-09-09T14:52:45;4.55;;;1.30;;
56943;SDS011;42848;42.524;12.052;2022-09-09T14:55:12;3.30;;;1.10;;
56943;SDS011;42848;42.524;12.052;2022-09-09T14:57:38;2.17;;;1.17;;
56943;SDS011;42848;42.524;12.052;2022-09-09T15:00:05;7.40;;;1.40;;
56943;SDS011;42848;42.524;12.052;2022-09-09T15:02:33;4.95;;;1.30;;
56943;SDS011;42848;42.524;12.052;2022-09-09T15:04:58;5.68;;;1.17;;
56943;SDS011;42848;42.524;12.052;2022-09-09T15:07:24;3.17;;;1.30;;
56943;SDS011;42848;42.524;12.052;2022-09-09T15:09:50;6.00;;;1.50;;
56943;SDS011;42848;42.524;12.052;2022-09-09T15:12:18;4.38;;;1.13;;
56943;SDS011;42848;42.524;12.052;2022-09-09T15:14:44;5.28;;;1.45;;
56943;SDS011;42848;42.524;12.052;2022-09-09T15:17:10;4.55;;;1.35;;
56943;SDS011;42848;42.524;12.052;2022-09-09T15:19:36;4.32;;;1.38;;
56943;SDS011;42848;42.524;12.052;2022-09-09T15:22:03;3.63;;;1.30;;
56943;SDS011;42848;42.524;12.052;2022-09-09T15:24:33;5.35;;;1.30;;
56943;SDS011;42848;42.524;12.052;2022-09-09T15:27:00;6.80;;;1.50;;
56943;SDS011;42848;42.524;12.052;2022-09-09T15:29:26;5.70;;;1.58;;
56943;SDS011;42848;42.524;12.052;2022-09-09T15:31:55;5.60;;;1.73;;
56943;SDS011;42848;42.524;12.052;2022-09-09T15:34:21;5.22;;;1.42;;
56943;SDS011;42848;42.524;12.052;2022-09-09T15:36:47;4.80;;;1.33;;
56943;SDS011;42848;42.524;12.052;2022-09-09T15:39:16;4.20;;;1.33;;
56943;SDS011;42848;42.524;12.052;2022-09-09T15:41:46;3.97;;;1.40;;
56943;SDS011;42848;42.524;12.052;2022-09-09T15:44:13;5.03;;;1.42;;
56943;SDS011;42848;42.524;12.052;2022-09-09T15:46:39;2.88;;;1.40;;
56943;SDS011;42848;42.524;12.052;2022-09-09T15:49:08;4.70;;;1.80;;
56943;SDS011;42848;42.524;12.052;2022-09-09T15:51:36;3.65;;;1.60;;
56943;SDS011;42848;42.524;12.052;2022-09-09T15:54:04;4.20;;;1.40;;
56943;SDS011;42848;42.524;12.052;2022-09-09T15:56:30;9.60;;;1.80;;
56943;SDS011;42848;42.524;12.052;2022-09-09T15:58:57;5.30;;;1.50;;
56943;SDS011;42848;42.524;12.052;2022-09-09T16:01:24;5.72;;;1.40;;
56943;SDS011;42848;42.524;12.052;2022-09-09T16:03:52;4.40;;;1.63;;
56943;SDS011;42848;42.524;12.052;2022-09-09T16:06:19;5.30;;;1.70;;
56943;SDS011;42848;42.524;12.052;2022-09-09T16:08:47;4.72;;;1.40;;
56943;SDS011;42848;42.524;12.052;2022-09-09T16:11:25;5.25;;;1.30;;
56943;SDS011;42848;42.524;12.052;2022-09-09T16:14:02;4.13;;;1.55;;
56943;SDS011;42848;42.524;12.052;2022-09-09T16:16:29;4.63;;;1.60;;
56943;SDS011;42848;42.524;12.052;2022-09-09T16:18:56;7.05;;;1.40;;
56943;SDS011;42848;42.524;12.052;2022-09-09T16:21:33;4.85;;;1.45;;
56943;SDS011;42848;42.524;12.052;2022-09-09T16:24:02;3.53;;;1.48;;
56943;SDS011;42848;42.524;12.052;2022-09-09T16:26:30;4.65;;;1.33;;
56943;SDS011;42848;42.524;12.052;2022-09-09T16:28:58;3.17;;;1.20;;
56943;SDS011;42848;42.524;12.052;2022-09-09T16:31:25;5.55;;;1.63;;
56943;SDS011;42848;42.524;12.052;2022-09-09T16:33:52;3.92;;;1.40;;
56943;SDS011;42848;42.524;12.052;2022-09-09T16:36:19;5.72;;;1.30;;
56943;SDS011;42848;42.524;12.052;2022-09-09T16:38:56;4.97;;;1.25;;
56943;SDS011;42848;42.524;12.052;2022-09-09T16:41:26;4.60;;;1.50;;
56943;SDS011;42848;42.524;12.052;2022-09-09T16:43:57;4.60;;;1.63;;
56943;SDS011;42848;42.524;12.052;2022-09-09T16:46:25;4.57;;;1.63;;
56943;SDS011;42848;42.524;12.052;2022-09-09T16:48:53;5.18;;;3.05;;
56943;SDS011;42848;42.524;12.052;2022-09-09T16:51:22;7.13;;;4.45;;
56943;SDS011;42848;42.524;12.052;2022-09-09T16:53:53;9.30;;;5.70;;
56943;SDS011;42848;42.524;12.052;2022-09-09T16:56:20;9.00;;;3.70;;
56943;SDS011;42848;42.524;12.052;2022-09-09T16:58:53;7.18;;;2.28;;
56943;SDS011;42848;42.524;12.052;2022-09-09T17:01:24;6.43;;;3.00;;
56943;SDS011;42848;42.524;12.052;2022-09-09T17:03:58;8.23;;;5.38;;
56943;SDS011;42848;42.524;12.052;2022-09-09T17:06:27;4.70;;;1.92;;
56943;SDS011;42848;42.524;12.052;2022-09-09T17:08:58;5.45;;;1.90;;
56943;SDS011;42848;42.524;12.052;2022-09-09T17:11:26;6.72;;;1.50;;
56943;SDS011;42848;42.524;12.052;2022-09-09T17:13:52;4.35;;;1.60;;
56943;SDS011;42848;42.524;12.052;2022-09-09T17:16:20;5.20;;;1.60;;